sensor_id;sensor_type;location;lat;lon;timestamp;temperature;humidity
19242;DHT22;9755;47.790;9.620;2023-04-15T00:02:15;0.90;99.90
19242;DHT22;9755;47.790;9.620;2023-04-15T00:04:43;1.00;99.90
19242;DHT22;9755;47.790;9.620;2023-04-15T00:07:10;0.90;99.90
19242;DHT22;9755;47.790;9.620;2023-04-15T00:09:37;0.90;99.90
19242;DHT22;9755;47.790;9.620;2023-04-15T00:12:04;0.90;99.90
19242;DHT22;9755;47.790;9.620;2023-04-15T00:14:33;0.90;99.90
19242;DHT22;9755;47.790;9.620;2023-04-15T00:17:01;0.80;99.90
19242;DHT22;9755;47.790;9.620;2023-04-15T00:19:30;0.80;99.90
19242;DHT22;9755;47.790;9.620;2023-04-15T00:21:58;0.70;99.90
19242;DHT22;9755;47.790;9.620;2023-04-15T00:24:25;0.70;99.90
19242;DHT22;9755;47.790;9.620;2023-04-15T00:26:52;0.70;99.90
19242;DHT22;9755;47.790;9.620;2023-04-15T00:29:19;0.60;99.90
19242;DHT22;9755;47.790;9.620;2023-04-15T00:31:46;0.50;99.90
19242;DHT22;9755;47.790;9.620;2023-04-15T00:34:13;0.50;99.90
19242;DHT22;9755;47.790;9.620;2023-04-15T00:36:42;0.40;99.90
19242;DHT22;9755;47.790;9.620;2023-04-15T00:39:09;0.50;99.90
19242;DHT22;9755;47.790;9.620;2023-04-15T00:41:38;0.40;99.90
19242;DHT22;9755;47.790;9.620;2023-04-15T00:44:05;0.50;99.90
19242;DHT22;9755;47.790;9.620;2023-04-15T00:46:34;0.30;99.90
19242;DHT22;9755;47.790;9.620;2023-04-15T00:49:03;0.10;99.90
19242;DHT22;9755;47.790;9.620;2023-04-15T00:51:30;-0.20;99.90
19242;DHT22;9755;47.790;9.620;2023-04-15T00:54:02;-0.30;99.90
19242;DHT22;9755;47.790;9.620;2023-04-15T00:56:30;-0.40;99.90
19242;DHT22;9755;47.790;9.620;2023-04-15T00:58:58;-0.50;99.90
19242;DHT22;9755;47.790;9.620;2023-04-15T01:01:25;-0.60;99.90
19242;DHT22;9755;47.790;9.620;2023-04-15T01:03:55;-0.60;99.90
19242;DHT22;9755;47.790;9.620;2023-04-15T01:06:23;-0.40;99.90
19242;DHT22;9755;47.790;9.620;2023-04-15T01:08:52;-0.20;99.90
19242;DHT22;9755;47.790;9.620;2023-04-15T01:11:22;0.00;99.90
19242;DHT22;9755;47.790;9.620;2023-04-15T01:13:50;0.10;99.90
19242;DHT22;9755;47.790;9.620;2023-04-15T01:16:17;0.20;99.90
19242;DHT22;9755;47.790;9.620;2023-04-15T01:18:45;0.30;99.90
19242;DHT22;9755;47.790;9.620;2023-04-15T01:21:12;0.30;99.90
19242;DHT22;9755;47.790;9.620;2023-04-15T01:23:39;0.30;99.90
19242;DHT22;9755;47.790;9.620;2023-04-15T01:26:08;0.30;99.90
19242;DHT22;9755;47.790;9.620;2023-04-15T01:28:36;0.30;99.90
19242;DHT22;9755;47.790;9.620;2023-04-15T01:31:07;0.30;99.90
19242;DHT22;9755;47.790;9.620;2023-04-15T01:33:34;0.10;99.90
19242;DHT22;9755;47.790;9.620;2023-04-15T01:36:02;0.00;99.90
19242;DHT22;9755;47.790;9.620;2023-04-15T01:38:30;0.00;99.90
19242;DHT22;9755;47.790;9.620;2023-04-15T01:40:57;-0.10;99.90
19242;DHT22;9755;47.790;9.620;2023-04-15T01:43:26;-0.20;99.90
19242;DHT22;9755;47.790;9.620;2023-04-15T01:45:54;-0.40;99.90
19242;DHT22;9755;47.790;9.620;2023-04-15T01:48:21;-0.60;99.90
19242;DHT22;9755;47.790;9.620;2023-04-15T01:50:48;-0.80;99.90
19242;DHT22;9755;47.790;9.620;2023-04-15T01:53:16;-0.80;99.90
19242;DHT22;9755;47.790;9.620;2023-04-15T01:55:43;-0.60;99.90
19242;DHT22;9755;47.790;9.620;2023-04-15T01:58:10;-0.70;99.90
19242;DHT22;9755;47.790;9.620;2023-04-15T02:00:39;-0.80;99.90
19242;DHT22;9755;47.790;9.620;2023-04-15T02:03:07;-0.90;99.90
19242;DHT22;9755;47.790;9.620;2023-04-15T02:05:34;-0.80;99.90
19242;DHT22;9755;47.790;9.620;2023-04-15T02:08:01;-0.90;99.90
19242;DHT22;9755;47.790;9.620;2023-04-15T02:10:28;-0.90;99.90
19242;DHT22;9755;47.790;9.620;2023-04-15T02:12:55;-0.90;99.90
19242;DHT22;9755;47.790;9.620;2023-04-15T02:15:22;-0.90;99.90
19242;DHT22;9755;47.790;9.620;2023-04-15T02:17:51;-0.70;99.90
19242;DHT22;9755;47.790;9.620;2023-04-15T02:20:20;-0.60;99.90
19242;DHT22;9755;47.790;9.620;2023-04-15T02:22:47;-0.50;99.90
19242;DHT22;9755;47.790;9.620;2023-04-15T02:25:15;-0.50;99.90
19242;DHT22;9755;47.790;9.620;2023-04-15T02:27:42;-0.60;99.90
19242;DHT22;9755;47.790;9.620;2023-04-15T02:30:10;-0.60;99.90
19242;DHT22;9755;47.790;9.620;2023-04-15T02:32:37;-0.80;99.90
19242;DHT22;9755;47.790;9.620;2023-04-15T02:35:07;-1.00;99.90
19242;DHT22;9755;47.790;9.620;2023-04-15T02:37:35;-1.10;99.90
19242;DHT22;9755;47.790;9.620;2023-04-15T02:42:35;-1.10;99.90
19242;DHT22;9755;47.790;9.620;2023-04-15T02:45:03;-0.50;99.90
19242;DHT22;9755;47.790;9.620;2023-04-15T02:47:30;-0.40;99.90
19242;DHT22;9755;47.790;9.620;2023-04-15T02:49:57;-0.30;99.90
19242;DHT22;9755;47.790;9.620;2023-04-15T02:52:26;-0.20;99.90
19242;DHT22;9755;47.790;9.620;2023-04-15T02:54:54;-0.30;99.90
19242;DHT22;9755;47.790;9.620;2023-04-15T02:57:25;-0.40;99.90
19242;DHT22;9755;47.790;9.620;2023-04-15T02:59:53;-0.60;99.90
19242;DHT22;9755;47.790;9.620;2023-04-15T03:02:20;-0.70;99.90
19242;DHT22;9755;47.790;9.620;2023-04-15T03:04:48;-0.90;99.90
19242;DHT22;9755;47.790;9.620;2023-04-15T03:07:17;-1.10;99.90
19242;DHT22;9755;47.790;9.620;2023-04-15T03:09:45;-1.20;99.90
19242;DHT22;9755;47.790;9.620;2023-04-15T03:12:12;-1.30;99.90
19242;DHT22;9755;47.790;9.620;2023-04-15T03:14:39;-1.20;99.90
19242;DHT22;9755;47.790;9.620;2023-04-15T03:17:07;-1.30;99.90
19242;DHT22;9755;47.790;9.620;2023-04-15T03:19:34;-1.50;99.90
19242;DHT22;9755;47.790;9.620;2023-04-15T03:22:01;-1.60;99.90
19242;DHT22;9755;47.790;9.620;2023-04-15T03:24:28;-1.80;99.90
19242;DHT22;9755;47.790;9.620;2023-04-15T03:26:56;-1.90;99.90
19242;DHT22;9755;47.790;9.620;2023-04-15T03:29:24;-1.80;99.90
19242;DHT22;9755;47.790;9.620;2023-04-15T03:31:51;-1.80;99.90
19242;DHT22;9755;47.790;9.620;2023-04-15T03:34:19;-1.70;99.90
19242;DHT22;9755;47.790;9.620;2023-04-15T03:36:46;-1.40;99.90
19242;DHT22;9755;47.790;9.620;2023-04-15T03:39:13;-1.40;99.90
19242;DHT22;9755;47.790;9.620;2023-04-15T03:41:40;-1.40;99.90
19242;DHT22;9755;47.790;9.620;2023-04-15T03:44:09;-1.40;99.90
19242;DHT22;9755;47.790;9.620;2023-04-15T03:46:36;-1.50;99.90
19242;DHT22;9755;47.790;9.620;2023-04-15T03:49:03;-1.60;99.90
19242;DHT22;9755;47.790;9.620;2023-04-15T03:51:30;-1.60;99.90
19242;DHT22;9755;47.790;9.620;2023-04-15T03:53:57;-1.60;99.90
19242;DHT22;9755;47.790;9.620;2023-04-15T03:56:24;-1.50;99.90
19242;DHT22;9755;47.790;9.620;2023-04-15T03:58:51;-1.40;99.90
19242;DHT22;9755;47.790;9.620;2023-04-15T04:01:21;-1.40;99.90
19242;DHT22;9755;47.790;9.620;2023-04-15T04:03:48;-1.50;99.90
19242;DHT22;9755;47.790;9.620;2023-04-15T04:06:15;-1.70;99.90
19242;DHT22;9755;47.790;9.620;2023-04-15T04:08:42;-1.70;99.90
19242;DHT22;9755;47.790;9.620;2023-04-15T04:11:09;-1.80;99.90
19242;DHT22;9755;47.790;9.620;2023-04-15T04:13:36;-1.80;99.90
19242;DHT22;9755;47.790;9.620;2023-04-15T04:16:03;-1.70;99.90
19242;DHT22;9755;47.790;9.620;2023-04-15T04:18:32;-1.50;99.90
19242;DHT22;9755;47.790;9.620;2023-04-15T04:20:59;-1.30;99.90
19242;DHT22;9755;47.790;9.620;2023-04-15T04:23:27;-1.20;99.90
19242;DHT22;9755;47.790;9.620;2023-04-15T04:25:54;-1.10;99.90
19242;DHT22;9755;47.790;9.620;2023-04-15T04:28:21;-1.10;99.90
19242;DHT22;9755;47.790;9.620;2023-04-15T04:30:48;-0.90;99.90
19242;DHT22;9755;47.790;9.620;2023-04-15T04:33:15;-1.00;99.90
19242;DHT22;9755;47.790;9.620;2023-04-15T04:35:43;-0.90;99.90
19242;DHT22;9755;47.790;9.620;2023-04-15T04:38:10;-1.00;99.90
19242;DHT22;9755;47.790;9.620;2023-04-15T04:40:38;-1.20;99.90
19242;DHT22;9755;47.790;9.620;2023-04-15T04:43:05;-1.20;99.90
19242;DHT22;9755;47.790;9.620;2023-04-15T04:45:32;-1.10;99.90
19242;DHT22;9755;47.790;9.620;2023-04-15T04:47:59;-1.00;99.90
19242;DHT22;9755;47.790;9.620;2023-04-15T04:50:26;-0.80;99.90
19242;DHT22;9755;47.790;9.620;2023-04-15T04:52:54;-0.70;99.90
19242;DHT22;9755;47.790;9.620;2023-04-15T04:55:51;-0.80;99.90
19242;DHT22;9755;47.790;9.620;2023-04-15T04:58:32;-0.90;99.90
19242;DHT22;9755;47.790;9.620;2023-04-15T05:00:59;-0.80;99.90
19242;DHT22;9755;47.790;9.620;2023-04-15T05:03:27;-0.90;99.90
19242;DHT22;9755;47.790;9.620;2023-04-15T05:05:54;-0.90;99.90
19242;DHT22;9755;47.790;9.620;2023-04-15T05:08:25;-1.10;99.90
19242;DHT22;9755;47.790;9.620;2023-04-15T05:10:52;-1.10;99.90
19242;DHT22;9755;47.790;9.620;2023-04-15T05:13:19;-1.10;99.90
19242;DHT22;9755;47.790;9.620;2023-04-15T05:15:46;-1.00;99.90
19242;DHT22;9755;47.790;9.620;2023-04-15T05:18:13;-0.90;99.90
19242;DHT22;9755;47.790;9.620;2023-04-15T05:20:40;-0.60;99.90
19242;DHT22;9755;47.790;9.620;2023-04-15T05:23:07;-0.60;99.90
19242;DHT22;9755;47.790;9.620;2023-04-15T05:25:36;-0.40;99.90
19242;DHT22;9755;47.790;9.620;2023-04-15T05:28:03;-0.30;99.90
19242;DHT22;9755;47.790;9.620;2023-04-15T05:30:30;0.20;99.90
19242;DHT22;9755;47.790;9.620;2023-04-15T05:32:57;1.00;99.90
19242;DHT22;9755;47.790;9.620;2023-04-15T05:35:25;1.80;99.90
19242;DHT22;9755;47.790;9.620;2023-04-15T05:37:51;2.30;99.90
19242;DHT22;9755;47.790;9.620;2023-04-15T05:40:19;2.30;99.90
19242;DHT22;9755;47.790;9.620;2023-04-15T05:42:48;2.70;99.90
19242;DHT22;9755;47.790;9.620;2023-04-15T05:45:15;3.20;99.90
19242;DHT22;9755;47.790;9.620;2023-04-15T05:47:43;3.70;99.90
19242;DHT22;9755;47.790;9.620;2023-04-15T05:50:10;4.20;99.90
19242;DHT22;9755;47.790;9.620;2023-04-15T05:52:37;4.30;99.90
19242;DHT22;9755;47.790;9.620;2023-04-15T05:55:05;4.50;99.90
19242;DHT22;9755;47.790;9.620;2023-04-15T05:57:32;4.50;99.90
19242;DHT22;9755;47.790;9.620;2023-04-15T06:00:00;4.50;99.90
19242;DHT22;9755;47.790;9.620;2023-04-15T06:02:28;4.90;99.90
19242;DHT22;9755;47.790;9.620;2023-04-15T06:04:55;5.40;99.90
19242;DHT22;9755;47.790;9.620;2023-04-15T06:07:22;5.70;99.90
19242;DHT22;9755;47.790;9.620;2023-04-15T06:09:49;5.80;99.90
19242;DHT22;9755;47.790;9.620;2023-04-15T06:12:16;6.00;99.90
19242;DHT22;9755;47.790;9.620;2023-04-15T06:14:43;6.10;99.90
19242;DHT22;9755;47.790;9.620;2023-04-15T06:17:11;5.80;99.90
19242;DHT22;9755;47.790;9.620;2023-04-15T06:19:39;5.50;99.90
19242;DHT22;9755;47.790;9.620;2023-04-15T06:22:07;5.30;99.90
19242;DHT22;9755;47.790;9.620;2023-04-15T06:24:34;5.50;99.90
19242;DHT22;9755;47.790;9.620;2023-04-15T06:27:01;5.70;99.90
19242;DHT22;9755;47.790;9.620;2023-04-15T06:29:28;5.70;99.90
19242;DHT22;9755;47.790;9.620;2023-04-15T06:31:55;5.80;99.90
19242;DHT22;9755;47.790;9.620;2023-04-15T06:34:24;5.80;99.90
19242;DHT22;9755;47.790;9.620;2023-04-15T06:36:52;6.10;99.90
19242;DHT22;9755;47.790;9.620;2023-04-15T06:39:19;6.10;99.90
19242;DHT22;9755;47.790;9.620;2023-04-15T06:41:46;6.70;99.90
19242;DHT22;9755;47.790;9.620;2023-04-15T06:44:13;7.20;99.90
19242;DHT22;9755;47.790;9.620;2023-04-15T06:46:40;7.40;99.90
19242;DHT22;9755;47.790;9.620;2023-04-15T06:49:07;7.80;99.90
19242;DHT22;9755;47.790;9.620;2023-04-15T06:51:36;8.10;99.90
19242;DHT22;9755;47.790;9.620;2023-04-15T06:54:03;8.90;99.90
19242;DHT22;9755;47.790;9.620;2023-04-15T06:56:30;9.60;99.90
19242;DHT22;9755;47.790;9.620;2023-04-15T06:58:57;10.00;99.90
19242;DHT22;9755;47.790;9.620;2023-04-15T07:01:25;9.80;99.90
19242;DHT22;9755;47.790;9.620;2023-04-15T07:03:52;10.20;99.90
19242;DHT22;9755;47.790;9.620;2023-04-15T07:06:19;10.30;99.90
19242;DHT22;9755;47.790;9.620;2023-04-15T07:08:47;10.80;99.90
19242;DHT22;9755;47.790;9.620;2023-04-15T07:11:14;11.40;99.90
19242;DHT22;9755;47.790;9.620;2023-04-15T07:13:42;11.40;96.60
19242;DHT22;9755;47.790;9.620;2023-04-15T07:16:09;11.30;96.40
19242;DHT22;9755;47.790;9.620;2023-04-15T07:18:36;11.10;96.70
19242;DHT22;9755;47.790;9.620;2023-04-15T07:21:03;11.30;92.90
19242;DHT22;9755;47.790;9.620;2023-04-15T07:23:30;11.80;92.90
19242;DHT22;9755;47.790;9.620;2023-04-15T07:25:58;12.80;89.60
19242;DHT22;9755;47.790;9.620;2023-04-15T07:28:26;13.70;78.10
19242;DHT22;9755;47.790;9.620;2023-04-15T07:30:53;14.20;72.70
19242;DHT22;9755;47.790;9.620;2023-04-15T07:33:21;15.00;69.10
19242;DHT22;9755;47.790;9.620;2023-04-15T07:35:48;14.80;58.00
19242;DHT22;9755;47.790;9.620;2023-04-15T07:38:16;14.30;57.90
19242;DHT22;9755;47.790;9.620;2023-04-15T07:40:43;13.90;59.80
19242;DHT22;9755;47.790;9.620;2023-04-15T07:43:11;14.00;57.40
19242;DHT22;9755;47.790;9.620;2023-04-15T07:45:38;13.80;58.90
19242;DHT22;9755;47.790;9.620;2023-04-15T07:48:05;13.80;57.60
19242;DHT22;9755;47.790;9.620;2023-04-15T07:50:32;13.60;57.80
19242;DHT22;9755;47.790;9.620;2023-04-15T07:52:59;13.70;59.60
19242;DHT22;9755;47.790;9.620;2023-04-15T07:55:26;14.40;59.60
19242;DHT22;9755;47.790;9.620;2023-04-15T07:57:55;15.40;58.50
19242;DHT22;9755;47.790;9.620;2023-04-15T08:00:23;15.90;53.40
19242;DHT22;9755;47.790;9.620;2023-04-15T08:02:51;15.80;52.00
19242;DHT22;9755;47.790;9.620;2023-04-15T08:05:18;15.90;51.10
19242;DHT22;9755;47.790;9.620;2023-04-15T08:07:45;15.70;48.30
19242;DHT22;9755;47.790;9.620;2023-04-15T08:10:13;15.80;50.10
19242;DHT22;9755;47.790;9.620;2023-04-15T08:12:40;16.30;49.30
19242;DHT22;9755;47.790;9.620;2023-04-15T08:15:08;16.50;46.50
19242;DHT22;9755;47.790;9.620;2023-04-15T08:17:36;16.30;44.20
19242;DHT22;9755;47.790;9.620;2023-04-15T08:20:04;15.90;43.80
19242;DHT22;9755;47.790;9.620;2023-04-15T08:22:32;14.90;45.00
19242;DHT22;9755;47.790;9.620;2023-04-15T08:25:00;13.70;46.50
19242;DHT22;9755;47.790;9.620;2023-04-15T08:27:28;13.50;51.70
19242;DHT22;9755;47.790;9.620;2023-04-15T08:29:55;13.90;50.70
19242;DHT22;9755;47.790;9.620;2023-04-15T08:32:22;14.10;50.80
19242;DHT22;9755;47.790;9.620;2023-04-15T08:34:52;14.30;48.60
19242;DHT22;9755;47.790;9.620;2023-04-15T08:37:19;14.00;49.90
19242;DHT22;9755;47.790;9.620;2023-04-15T08:39:47;13.60;49.40
19242;DHT22;9755;47.790;9.620;2023-04-15T08:42:16;12.90;51.70
19242;DHT22;9755;47.790;9.620;2023-04-15T08:44:45;13.30;52.20
19242;DHT22;9755;47.790;9.620;2023-04-15T08:47:13;13.00;53.80
19242;DHT22;9755;47.790;9.620;2023-04-15T08:49:42;13.00;54.10
19242;DHT22;9755;47.790;9.620;2023-04-15T08:52:11;13.50;52.70
19242;DHT22;9755;47.790;9.620;2023-04-15T08:54:39;14.10;51.90
19242;DHT22;9755;47.790;9.620;2023-04-15T08:57:06;14.30;46.50
19242;DHT22;9755;47.790;9.620;2023-04-15T08:59:34;13.20;49.80
19242;DHT22;9755;47.790;9.620;2023-04-15T09:02:01;13.20;50.20
19242;DHT22;9755;47.790;9.620;2023-04-15T09:04:29;13.50;49.40
19242;DHT22;9755;47.790;9.620;2023-04-15T09:06:56;13.30;47.50
19242;DHT22;9755;47.790;9.620;2023-04-15T09:09:25;13.00;50.30
19242;DHT22;9755;47.790;9.620;2023-04-15T09:11:53;13.40;48.70
19242;DHT22;9755;47.790;9.620;2023-04-15T09:14:21;12.80;49.60
19242;DHT22;9755;47.790;9.620;2023-04-15T09:16:58;12.60;53.60
19242;DHT22;9755;47.790;9.620;2023-04-15T09:19:26;13.60;49.50
19242;DHT22;9755;47.790;9.620;2023-04-15T09:22:02;14.30;49.20
19242;DHT22;9755;47.790;9.620;2023-04-15T09:24:40;14.60;48.10
19242;DHT22;9755;47.790;9.620;2023-04-15T09:27:08;14.60;44.70
19242;DHT22;9755;47.790;9.620;2023-04-15T09:29:35;14.50;43.10
19242;DHT22;9755;47.790;9.620;2023-04-15T09:32:10;14.70;45.10
19242;DHT22;9755;47.790;9.620;2023-04-15T09:34:37;15.00;44.70
19242;DHT22;9755;47.790;9.620;2023-04-15T09:37:04;15.40;44.60
19242;DHT22;9755;47.790;9.620;2023-04-15T09:39:49;15.70;40.80
19242;DHT22;9755;47.790;9.620;2023-04-15T09:42:16;15.20;41.10
19242;DHT22;9755;47.790;9.620;2023-04-15T09:44:48;15.10;41.70
19242;DHT22;9755;47.790;9.620;2023-04-15T09:47:36;14.80;42.00
19242;DHT22;9755;47.790;9.620;2023-04-15T09:50:04;15.10;42.80
19242;DHT22;9755;47.790;9.620;2023-04-15T09:52:31;15.20;41.20
19242;DHT22;9755;47.790;9.620;2023-04-15T09:55:00;15.00;42.20
19242;DHT22;9755;47.790;9.620;2023-04-15T09:57:34;15.30;40.00
19242;DHT22;9755;47.790;9.620;2023-04-15T10:00:02;15.30;40.20
19242;DHT22;9755;47.790;9.620;2023-04-15T10:02:29;16.10;40.40
19242;DHT22;9755;47.790;9.620;2023-04-15T10:04:57;16.20;40.10
19242;DHT22;9755;47.790;9.620;2023-04-15T10:07:25;15.60;40.10
19242;DHT22;9755;47.790;9.620;2023-04-15T10:09:53;15.60;41.50
19242;DHT22;9755;47.790;9.620;2023-04-15T10:12:22;15.50;41.00
19242;DHT22;9755;47.790;9.620;2023-04-15T10:14:52;15.20;40.50
19242;DHT22;9755;47.790;9.620;2023-04-15T10:17:22;15.30;43.40
19242;DHT22;9755;47.790;9.620;2023-04-15T10:19:53;16.00;43.80
19242;DHT22;9755;47.790;9.620;2023-04-15T10:22:21;16.60;44.00
19242;DHT22;9755;47.790;9.620;2023-04-15T10:24:49;16.60;42.70
19242;DHT22;9755;47.790;9.620;2023-04-15T10:27:17;16.80;44.30
19242;DHT22;9755;47.790;9.620;2023-04-15T10:29:47;16.70;41.00
19242;DHT22;9755;47.790;9.620;2023-04-15T10:32:15;16.50;40.90
19242;DHT22;9755;47.790;9.620;2023-04-15T10:34:43;15.50;42.30
19242;DHT22;9755;47.790;9.620;2023-04-15T10:37:11;16.20;44.10
19242;DHT22;9755;47.790;9.620;2023-04-15T10:39:42;16.00;43.50
19242;DHT22;9755;47.790;9.620;2023-04-15T10:42:10;15.90;43.00
19242;DHT22;9755;47.790;9.620;2023-04-15T10:44:38;16.40;41.90
19242;DHT22;9755;47.790;9.620;2023-04-15T10:47:13;16.10;42.10
19242;DHT22;9755;47.790;9.620;2023-04-15T10:49:45;16.50;41.10
19242;DHT22;9755;47.790;9.620;2023-04-15T10:52:14;16.30;40.00
19242;DHT22;9755;47.790;9.620;2023-04-15T10:54:41;16.30;40.10
19242;DHT22;9755;47.790;9.620;2023-04-15T10:57:14;16.70;38.20
19242;DHT22;9755;47.790;9.620;2023-04-15T10:59:59;17.00;39.30
19242;DHT22;9755;47.790;9.620;2023-04-15T11:02:40;16.40;37.80
19242;DHT22;9755;47.790;9.620;2023-04-15T11:05:07;17.30;40.20
19242;DHT22;9755;47.790;9.620;2023-04-15T11:07:39;19.10;37.20
19242;DHT22;9755;47.790;9.620;2023-04-15T11:13:22;19.00;33.10
19242;DHT22;9755;47.790;9.620;2023-04-15T11:15:55;20.00;31.70
19242;DHT22;9755;47.790;9.620;2023-04-15T11:18:25;19.60;31.10
19242;DHT22;9755;47.790;9.620;2023-04-15T11:20:54;19.60;31.20
19242;DHT22;9755;47.790;9.620;2023-04-15T11:23:28;17.50;32.50
19242;DHT22;9755;47.790;9.620;2023-04-15T11:25:56;17.70;32.70
19242;DHT22;9755;47.790;9.620;2023-04-15T11:28:25;18.30;28.30
19242;DHT22;9755;47.790;9.620;2023-04-15T11:30:53;18.40;24.40
19242;DHT22;9755;47.790;9.620;2023-04-15T11:33:22;19.40;24.30
19242;DHT22;9755;47.790;9.620;2023-04-15T11:35:51;20.20;23.10
19242;DHT22;9755;47.790;9.620;2023-04-15T11:38:19;20.30;22.80
19242;DHT22;9755;47.790;9.620;2023-04-15T11:40:47;20.50;23.60
19242;DHT22;9755;47.790;9.620;2023-04-15T11:43:15;20.80;20.40
19242;DHT22;9755;47.790;9.620;2023-04-15T11:45:50;20.10;17.30
19242;DHT22;9755;47.790;9.620;2023-04-15T11:48:20;20.20;20.00
19242;DHT22;9755;47.790;9.620;2023-04-15T11:50:54;19.20;20.20
19242;DHT22;9755;47.790;9.620;2023-04-15T11:53:21;19.70;18.80
19242;DHT22;9755;47.790;9.620;2023-04-15T11:55:50;20.30;17.50
19242;DHT22;9755;47.790;9.620;2023-04-15T11:58:19;20.50;16.80
19242;DHT22;9755;47.790;9.620;2023-04-15T12:00:48;20.30;17.90
19242;DHT22;9755;47.790;9.620;2023-04-15T12:03:23;19.20;17.40
19242;DHT22;9755;47.790;9.620;2023-04-15T12:06:13;18.60;18.70
19242;DHT22;9755;47.790;9.620;2023-04-15T12:09:08;18.60;19.80
19242;DHT22;9755;47.790;9.620;2023-04-15T12:11:47;19.30;18.60
19242;DHT22;9755;47.790;9.620;2023-04-15T12:14:25;18.30;17.70
19242;DHT22;9755;47.790;9.620;2023-04-15T12:16:56;18.20;19.10
19242;DHT22;9755;47.790;9.620;2023-04-15T12:19:25;18.50;20.20
19242;DHT22;9755;47.790;9.620;2023-04-15T12:21:57;18.50;19.60
19242;DHT22;9755;47.790;9.620;2023-04-15T12:24:24;17.60;20.20
19242;DHT22;9755;47.790;9.620;2023-04-15T12:26:53;17.60;22.10
19242;DHT22;9755;47.790;9.620;2023-04-15T12:29:25;17.40;18.90
19242;DHT22;9755;47.790;9.620;2023-04-15T12:31:54;16.70;20.40
19242;DHT22;9755;47.790;9.620;2023-04-15T12:34:29;16.90;21.10
19242;DHT22;9755;47.790;9.620;2023-04-15T12:36:59;16.40;20.00
19242;DHT22;9755;47.790;9.620;2023-04-15T12:39:28;16.50;21.00
19242;DHT22;9755;47.790;9.620;2023-04-15T12:41:55;16.50;21.70
19242;DHT22;9755;47.790;9.620;2023-04-15T12:44:23;16.60;21.80
19242;DHT22;9755;47.790;9.620;2023-04-15T12:46:51;16.60;22.70
19242;DHT22;9755;47.790;9.620;2023-04-15T12:49:19;16.80;23.10
19242;DHT22;9755;47.790;9.620;2023-04-15T12:51:47;16.80;22.90
19242;DHT22;9755;47.790;9.620;2023-04-15T12:54:16;16.50;21.90
19242;DHT22;9755;47.790;9.620;2023-04-15T12:56:43;16.50;21.80
19242;DHT22;9755;47.790;9.620;2023-04-15T12:59:10;16.70;21.40
19242;DHT22;9755;47.790;9.620;2023-04-15T13:01:37;17.30;21.10
19242;DHT22;9755;47.790;9.620;2023-04-15T13:04:05;17.30;19.70
19242;DHT22;9755;47.790;9.620;2023-04-15T13:06:32;17.40;18.30
19242;DHT22;9755;47.790;9.620;2023-04-15T13:08:59;17.30;19.70
19242;DHT22;9755;47.790;9.620;2023-04-15T13:11:29;17.40;19.20
19242;DHT22;9755;47.790;9.620;2023-04-15T13:13:59;17.20;17.40
19242;DHT22;9755;47.790;9.620;2023-04-15T13:16:26;17.10;19.80
19242;DHT22;9755;47.790;9.620;2023-04-15T13:18:53;17.40;19.70
19242;DHT22;9755;47.790;9.620;2023-04-15T13:21:20;17.00;19.10
19242;DHT22;9755;47.790;9.620;2023-04-15T13:23:48;17.60;19.40
19242;DHT22;9755;47.790;9.620;2023-04-15T13:26:15;18.20;19.00
19242;DHT22;9755;47.790;9.620;2023-04-15T13:28:44;19.00;18.70
19242;DHT22;9755;47.790;9.620;2023-04-15T13:31:11;18.40;19.30
19242;DHT22;9755;47.790;9.620;2023-04-15T13:33:38;18.70;19.30
19242;DHT22;9755;47.790;9.620;2023-04-15T13:36:06;18.60;19.70
19242;DHT22;9755;47.790;9.620;2023-04-15T13:38:33;18.10;20.60
19242;DHT22;9755;47.790;9.620;2023-04-15T13:41:00;17.40;21.20
19242;DHT22;9755;47.790;9.620;2023-04-15T13:43:28;16.10;22.60
19242;DHT22;9755;47.790;9.620;2023-04-15T13:45:57;15.30;24.40
19242;DHT22;9755;47.790;9.620;2023-04-15T13:48:24;14.60;26.60
19242;DHT22;9755;47.790;9.620;2023-04-15T13:50:51;14.40;28.00
19242;DHT22;9755;47.790;9.620;2023-04-15T13:53:18;14.30;28.40
19242;DHT22;9755;47.790;9.620;2023-04-15T13:55:45;14.20;28.60
19242;DHT22;9755;47.790;9.620;2023-04-15T13:58:12;14.10;29.20
19242;DHT22;9755;47.790;9.620;2023-04-15T14:00:39;14.30;29.70
19242;DHT22;9755;47.790;9.620;2023-04-15T14:03:08;14.30;31.60
19242;DHT22;9755;47.790;9.620;2023-04-15T14:05:35;14.20;32.10
19242;DHT22;9755;47.790;9.620;2023-04-15T14:08:02;14.00;32.30
19242;DHT22;9755;47.790;9.620;2023-04-15T14:10:29;13.90;34.40
19242;DHT22;9755;47.790;9.620;2023-04-15T14:12:56;13.60;35.70
19242;DHT22;9755;47.790;9.620;2023-04-15T14:15:23;13.40;37.60
19242;DHT22;9755;47.790;9.620;2023-04-15T14:17:50;13.20;40.30
19242;DHT22;9755;47.790;9.620;2023-04-15T14:20:19;13.20;40.70
19242;DHT22;9755;47.790;9.620;2023-04-15T14:22:46;13.20;41.50
19242;DHT22;9755;47.790;9.620;2023-04-15T14:25:13;13.10;40.40
19242;DHT22;9755;47.790;9.620;2023-04-15T14:27:40;13.10;42.10
19242;DHT22;9755;47.790;9.620;2023-04-15T14:30:08;13.10;44.20
19242;DHT22;9755;47.790;9.620;2023-04-15T14:32:35;13.00;44.50
19242;DHT22;9755;47.790;9.620;2023-04-15T14:35:02;12.90;46.10
19242;DHT22;9755;47.790;9.620;2023-04-15T14:37:30;12.80;46.60
19242;DHT22;9755;47.790;9.620;2023-04-15T14:39:58;12.60;45.30
19242;DHT22;9755;47.790;9.620;2023-04-15T14:42:25;12.50;44.90
19242;DHT22;9755;47.790;9.620;2023-04-15T14:44:52;12.50;45.00
19242;DHT22;9755;47.790;9.620;2023-04-15T14:47:19;12.50;44.80
19242;DHT22;9755;47.790;9.620;2023-04-15T14:49:46;12.30;43.20
19242;DHT22;9755;47.790;9.620;2023-04-15T14:52:13;12.20;44.10
19242;DHT22;9755;47.790;9.620;2023-04-15T14:54:41;12.20;44.50
19242;DHT22;9755;47.790;9.620;2023-04-15T14:57:08;12.10;45.40
19242;DHT22;9755;47.790;9.620;2023-04-15T14:59:35;11.90;58.30
19242;DHT22;9755;47.790;9.620;2023-04-15T15:02:03;11.70;63.50
19242;DHT22;9755;47.790;9.620;2023-04-15T15:04:30;11.50;66.40
19242;DHT22;9755;47.790;9.620;2023-04-15T15:06:58;11.30;65.10
19242;DHT22;9755;47.790;9.620;2023-04-15T15:09:25;11.20;67.50
19242;DHT22;9755;47.790;9.620;2023-04-15T15:11:53;11.10;75.70
19242;DHT22;9755;47.790;9.620;2023-04-15T15:14:21;11.00;71.00
19242;DHT22;9755;47.790;9.620;2023-04-15T15:16:48;10.90;77.20
19242;DHT22;9755;47.790;9.620;2023-04-15T15:19:15;10.70;76.20
19242;DHT22;9755;47.790;9.620;2023-04-15T15:21:42;10.50;89.30
19242;DHT22;9755;47.790;9.620;2023-04-15T15:24:09;10.40;94.40
19242;DHT22;9755;47.790;9.620;2023-04-15T15:26:36;10.20;98.60
19242;DHT22;9755;47.790;9.620;2023-04-15T15:29:06;10.10;98.40
19242;DHT22;9755;47.790;9.620;2023-04-15T15:31:33;10.10;99.90
19242;DHT22;9755;47.790;9.620;2023-04-15T15:34:00;10.10;99.90
19242;DHT22;9755;47.790;9.620;2023-04-15T15:36:29;10.10;99.90
19242;DHT22;9755;47.790;9.620;2023-04-15T15:38:56;10.00;99.90
19242;DHT22;9755;47.790;9.620;2023-04-15T15:41:24;9.90;99.90
19242;DHT22;9755;47.790;9.620;2023-04-15T15:43:51;9.80;99.90
19242;DHT22;9755;47.790;9.620;2023-04-15T15:46:20;9.90;99.90
19242;DHT22;9755;47.790;9.620;2023-04-15T15:48:48;9.80;99.90
19242;DHT22;9755;47.790;9.620;2023-04-15T15:51:15;9.40;99.90
19242;DHT22;9755;47.790;9.620;2023-04-15T15:53:42;9.00;99.90
19242;DHT22;9755;47.790;9.620;2023-04-15T15:56:10;8.80;99.90
19242;DHT22;9755;47.790;9.620;2023-04-15T15:58:37;8.70;99.90
19242;DHT22;9755;47.790;9.620;2023-04-15T16:01:04;8.60;99.90
19242;DHT22;9755;47.790;9.620;2023-04-15T16:03:34;8.40;99.90